createdAt,value
2018-09-03T00:00:28.644Z,99.90
2018-09-03T00:02:56.994Z,99.90
2018-09-03T00:05:25.668Z,99.90
2018-09-03T00:07:53.956Z,99.90
2018-09-03T00:10:22.321Z,99.90
2018-09-03T00:12:50.609Z,99.90
2018-09-03T00:15:18.909Z,99.90
2018-09-03T00:17:47.230Z,99.90
2018-09-03T00:20:15.539Z,99.90
2018-09-03T00:22:43.804Z,99.90
2018-09-03T00:25:12.065Z,99.90
2018-09-03T00:27:40.337Z,99.90
2018-09-03T00:30:08.599Z,99.90
2018-09-03T00:32:42.201Z,99.90
2018-09-03T00:35:15.829Z,99.90
2018-09-03T00:37:49.709Z,99.90
2018-09-03T00:40:23.317Z,99.90
2018-09-03T00:42:56.892Z,99.90
2018-09-03T00:45:30.676Z,99.90
2018-09-03T00:47:58.981Z,99.90
2018-09-03T00:50:27.354Z,99.90
2018-09-03T00:52:55.619Z,99.90
2018-09-03T00:55:23.859Z,99.90
2018-09-03T00:57:52.207Z,99.90
2018-09-03T01:00:20.461Z,99.90
2018-09-03T01:02:49.370Z,99.90
2018-09-03T01:05:17.636Z,99.90
2018-09-03T01:07:45.959Z,99.90
2018-09-03T01:10:14.284Z,99.90
2018-09-03T01:12:42.513Z,99.90
2018-09-03T01:15:10.856Z,99.90
2018-09-03T01:17:39.291Z,99.90
2018-09-03T01:20:07.580Z,99.90
2018-09-03T01:22:35.910Z,99.90
2018-09-03T01:25:04.259Z,99.90
2018-09-03T01:27:32.586Z,99.90
2018-09-03T01:30:00.937Z,99.90
2018-09-03T01:32:29.239Z,99.90
2018-09-03T01:34:57.569Z,99.90
2018-09-03T01:37:25.856Z,99.90
2018-09-03T01:39:54.383Z,99.90
2018-09-03T01:42:22.716Z,99.90
2018-09-03T01:44:51.011Z,99.90
2018-09-03T01:47:19.279Z,99.90
2018-09-03T01:49:47.587Z,99.90
2018-09-03T01:52:15.856Z,99.90
2018-09-03T01:54:44.162Z,99.90
2018-09-03T01:57:12.430Z,99.90
2018-09-03T01:59:40.727Z,99.90
2018-09-03T02:02:09.082Z,99.90
2018-09-03T02:04:37.388Z,99.90
2018-09-03T02:07:05.774Z,99.90
2018-09-03T02:09:34.104Z,99.90
2018-09-03T02:12:02.410Z,99.90
2018-09-03T02:14:30.682Z,99.90
2018-09-03T02:16:59.013Z,99.90
2018-09-03T02:19:27.352Z,99.90
2018-09-03T02:21:55.602Z,99.90
2018-09-03T02:24:23.905Z,99.90
2018-09-03T02:26:52.274Z,99.90
2018-09-03T02:29:20.602Z,99.90
2018-09-03T02:31:48.880Z,99.90
2018-09-03T02:34:17.205Z,99.90
2018-09-03T02:36:45.457Z,99.90
2018-09-03T02:39:13.729Z,99.90
2018-09-03T02:41:42.081Z,99.90
2018-09-03T02:44:10.430Z,99.90
2018-09-03T02:46:38.673Z,99.90
2018-09-03T02:49:07.161Z,99.90
2018-09-03T02:51:35.410Z,99.90
2018-09-03T02:54:03.687Z,99.90
2018-09-03T02:56:31.954Z,99.90
2018-09-03T02:59:00.351Z,99.90
2018-09-03T03:01:28.644Z,99.90
2018-09-03T03:03:56.943Z,99.90
2018-09-03T03:06:25.259Z,99.90
2018-09-03T03:08:53.665Z,99.90
2018-09-03T03:11:21.987Z,99.90
2018-09-03T03:13:50.240Z,99.90
2018-09-03T03:16:18.611Z,99.90
2018-09-03T03:18:46.957Z,99.90
2018-09-03T03:21:15.219Z,99.90
2018-09-03T03:23:43.585Z,99.90
2018-09-03T03:26:11.859Z,99.90
2018-09-03T03:28:40.224Z,99.90
2018-09-03T03:31:08.468Z,99.90
2018-09-03T03:33:36.831Z,99.90
2018-09-03T03:36:06.060Z,99.90
2018-09-03T03:38:34.393Z,99.90
2018-09-03T03:41:02.664Z,99.90
2018-09-03T03:43:30.927Z,99.90
2018-09-03T03:45:59.149Z,99.90
2018-09-03T03:48:27.484Z,99.90
2018-09-03T03:50:55.747Z,99.90
2018-09-03T03:53:24.074Z,99.90
2018-09-03T03:55:52.382Z,99.90
2018-09-03T03:58:20.711Z,99.90
2018-09-03T04:00:49.403Z,99.90
2018-09-03T04:03:17.713Z,99.90
2018-09-03T04:05:45.957Z,99.90
2018-09-03T04:08:14.264Z,99.90
2018-09-03T04:10:42.564Z,99.90
2018-09-03T04:13:10.884Z,99.90
2018-09-03T04:15:39.133Z,99.90
2018-09-03T04:18:07.505Z,99.90
2018-09-03T04:20:35.814Z,99.90
2018-09-03T04:23:04.191Z,99.90
2018-09-03T04:25:32.517Z,99.90
2018-09-03T04:28:00.872Z,99.90
2018-09-03T04:30:29.134Z,99.90
2018-09-03T04:32:57.423Z,99.90
2018-09-03T04:35:25.747Z,99.90
2018-09-03T04:37:54.041Z,99.90
2018-09-03T04:40:22.381Z,99.90
2018-09-03T04:42:50.696Z,99.90
2018-09-03T04:45:18.963Z,99.90
2018-09-03T04:47:47.256Z,99.90
2018-09-03T04:50:15.609Z,99.90
2018-09-03T04:52:43.926Z,99.90
2018-09-03T04:55:12.248Z,99.90
2018-09-03T04:57:40.486Z,99.90
2018-09-03T05:00:08.856Z,99.90
2018-09-03T05:02:37.169Z,99.90
2018-09-03T05:05:05.558Z,99.90
2018-09-03T05:07:33.877Z,99.90
2018-09-03T05:10:02.148Z,99.90
2018-09-03T05:12:30.423Z,99.90
2018-09-03T05:14:58.727Z,99.90
2018-09-03T05:17:27.037Z,99.90
2018-09-03T05:19:55.400Z,99.90
2018-09-03T05:22:23.693Z,99.90
2018-09-03T05:24:51.979Z,99.90
2018-09-03T05:27:20.318Z,99.90
2018-09-03T05:29:48.703Z,99.90
2018-09-03T05:32:16.963Z,99.90
2018-09-03T05:34:45.460Z,99.90
2018-09-03T05:37:13.820Z,99.90
2018-09-03T05:39:42.075Z,99.90
2018-09-03T05:42:10.322Z,99.90
2018-09-03T05:44:38.590Z,99.90
2018-09-03T05:47:06.861Z,99.90
2018-09-03T05:49:35.449Z,99.90
2018-09-03T05:52:03.775Z,99.90
2018-09-03T05:54:32.093Z,99.90
2018-09-03T05:57:00.543Z,99.90
2018-09-03T05:59:28.968Z,99.90
2018-09-03T06:01:57.821Z,99.90
2018-09-03T06:04:26.165Z,99.90
2018-09-03T06:06:54.769Z,99.90
2018-09-03T06:09:23.053Z,99.90
2018-09-03T06:11:51.380Z,99.90
2018-09-03T06:14:19.710Z,99.90
2018-09-03T06:16:47.951Z,99.90
2018-09-03T06:19:16.233Z,99.90
2018-09-03T06:21:44.574Z,99.90
2018-09-03T06:24:12.909Z,99.90
2018-09-03T06:26:41.326Z,99.90
2018-09-03T06:29:09.604Z,99.90
2018-09-03T06:31:37.857Z,99.90
2018-09-03T06:34:06.196Z,99.90
2018-09-03T06:36:34.480Z,99.90
2018-09-03T06:39:02.880Z,99.90
2018-09-03T06:41:31.186Z,99.90
2018-09-03T06:43:59.533Z,99.90
2018-09-03T06:46:27.860Z,99.90
2018-09-03T06:48:56.191Z,99.90
2018-09-03T06:51:24.444Z,99.90
2018-09-03T06:53:52.746Z,99.90
2018-09-03T06:56:21.102Z,99.90
2018-09-03T06:58:49.395Z,99.90
2018-09-03T07:01:17.767Z,99.90
2018-09-03T07:03:46.060Z,99.90
2018-09-03T07:06:14.326Z,99.90
2018-09-03T07:08:42.642Z,99.90
2018-09-03T07:11:11.898Z,99.90
2018-09-03T07:13:40.140Z,99.90
2018-09-03T07:16:08.490Z,99.90
2018-09-03T07:18:36.947Z,99.90
2018-09-03T07:21:05.246Z,99.90
2018-09-03T07:23:33.732Z,99.90
2018-09-03T07:26:02.039Z,99.90
2018-09-03T07:28:30.423Z,99.90
2018-09-03T07:30:59.195Z,99.90
2018-09-03T07:33:27.608Z,99.90
2018-09-03T07:35:55.961Z,99.90
2018-09-03T07:38:24.734Z,99.90
2018-09-03T07:40:53.103Z,99.90
2018-09-03T07:43:21.410Z,99.90
2018-09-03T07:45:49.657Z,99.90
2018-09-03T07:48:17.977Z,99.90
2018-09-03T07:50:46.260Z,99.90
2018-09-03T07:53:14.589Z,99.90
2018-09-03T07:55:42.987Z,99.90
2018-09-03T07:58:11.283Z,99.90
2018-09-03T08:00:39.597Z,99.90
2018-09-03T08:03:07.835Z,99.90
2018-09-03T08:05:36.105Z,99.90
2018-09-03T08:08:04.318Z,99.90
2018-09-03T08:10:32.577Z,99.90
2018-09-03T08:13:00.933Z,99.90
2018-09-03T08:15:29.170Z,99.90
2018-09-03T08:17:57.469Z,99.90
2018-09-03T08:20:25.790Z,99.90
2018-09-03T08:22:54.053Z,99.90
2018-09-03T08:25:22.384Z,99.90
2018-09-03T08:27:50.640Z,99.90
2018-09-03T08:30:18.983Z,99.90
2018-09-03T08:32:47.332Z,99.90
2018-09-03T08:35:15.597Z,99.90
2018-09-03T08:37:43.980Z,99.90
2018-09-03T08:40:12.198Z,99.90
2018-09-03T08:42:40.561Z,99.90
2018-09-03T08:45:08.881Z,99.90
2018-09-03T08:47:37.159Z,99.90
2018-09-03T08:50:05.527Z,99.90
2018-09-03T08:52:33.801Z,99.90
2018-09-03T08:55:02.068Z,99.90
2018-09-03T08:57:30.430Z,99.90
2018-09-03T08:59:58.801Z,99.90
2018-09-03T09:02:27.122Z,99.90
2018-09-03T09:04:55.404Z,99.90
2018-09-03T09:07:23.702Z,99.90
2018-09-03T09:09:52.067Z,99.90
2018-09-03T09:12:20.417Z,99.90
2018-09-03T09:14:48.753Z,99.90
2018-09-03T09:17:17.039Z,99.90
2018-09-03T09:19:45.331Z,99.90
2018-09-03T09:22:13.638Z,99.90
2018-09-03T09:24:41.915Z,99.90
2018-09-03T09:27:10.246Z,99.90
2018-09-03T09:29:38.582Z,99.90
2018-09-03T09:32:06.917Z,99.90
2018-09-03T09:34:35.269Z,99.90
2018-09-03T09:37:03.512Z,99.90
2018-09-03T09:39:31.870Z,99.90
2018-09-03T09:42:00.178Z,99.90
2018-09-03T09:44:28.578Z,99.90
2018-09-03T09:46:56.937Z,99.90
2018-09-03T09:49:25.311Z,99.90
2018-09-03T09:51:53.543Z,99.90
2018-09-03T09:54:21.770Z,99.90
2018-09-03T09:56:50.119Z,99.90
2018-09-03T09:59:18.480Z,99.90
2018-09-03T10:01:46.743Z,99.90
2018-09-03T10:04:15.147Z,99.90
2018-09-03T10:06:43.379Z,99.90
2018-09-03T10:09:11.725Z,99.90
2018-09-03T10:11:40.009Z,99.90
2018-09-03T10:14:08.291Z,99.90
2018-09-03T10:16:36.601Z,99.90
2018-09-03T10:19:04.824Z,99.90
2018-09-03T10:21:33.125Z,99.90
2018-09-03T10:24:01.395Z,99.90
2018-09-03T10:26:29.776Z,99.90
2018-09-03T10:28:58.186Z,99.90
2018-09-03T10:31:26.536Z,99.90
2018-09-03T10:33:54.895Z,99.90
2018-09-03T10:36:23.247Z,99.90
2018-09-03T10:38:51.458Z,99.90
2018-09-03T10:41:19.827Z,99.90
2018-09-03T10:43:48.179Z,99.90
2018-09-03T10:46:16.638Z,99.90
2018-09-03T10:48:44.936Z,99.90
2018-09-03T10:51:13.266Z,99.90
2018-09-03T10:53:41.551Z,99.90
2018-09-03T10:56:09.878Z,99.90
2018-09-03T10:58:38.151Z,99.90
2018-09-03T11:01:06.502Z,99.90
2018-09-03T11:03:34.801Z,99.90
2018-09-03T11:06:03.039Z,99.90
2018-09-03T11:08:31.411Z,99.90
2018-09-03T11:10:59.731Z,99.90
2018-09-03T11:13:28.084Z,99.90
2018-09-03T11:15:56.400Z,99.90
2018-09-03T11:18:26.162Z,99.90
2018-09-03T11:20:54.463Z,99.90
2018-09-03T11:23:22.822Z,99.90
2018-09-03T11:25:51.089Z,99.90
2018-09-03T11:28:19.377Z,99.90
2018-09-03T11:30:47.741Z,99.90
2018-09-03T11:33:16.016Z,99.90
2018-09-03T11:35:44.355Z,99.90
2018-09-03T11:38:12.658Z,99.90
2018-09-03T11:40:40.978Z,99.90
2018-09-03T11:43:09.216Z,99.90
2018-09-03T11:45:37.575Z,99.90
2018-09-03T11:48:05.840Z,99.90
2018-09-03T11:50:34.103Z,99.90
2018-09-03T11:53:02.414Z,99.90
2018-09-03T11:55:30.798Z,99.90
2018-09-03T11:57:59.201Z,99.90
2018-09-03T12:00:30.758Z,99.90
2018-09-03T12:02:59.312Z,99.90
2018-09-03T12:05:28.325Z,99.90
2018-09-03T12:07:56.636Z,99.90
2018-09-03T12:10:25.069Z,99.90
2018-09-03T12:12:53.379Z,99.90
2018-09-03T12:15:26.927Z,99.90
2018-09-03T12:17:55.239Z,99.90
2018-09-03T12:20:23.598Z,99.90
2018-09-03T12:22:51.921Z,99.90
2018-09-03T12:25:20.252Z,99.90
2018-09-03T12:27:48.565Z,99.90
2018-09-03T12:30:16.804Z,99.90
2018-09-03T12:32:45.070Z,99.90
2018-09-03T12:35:13.395Z,99.90
2018-09-03T12:37:41.641Z,99.90
2018-09-03T12:40:09.937Z,99.90
2018-09-03T12:42:38.222Z,99.90
2018-09-03T12:45:06.578Z,99.90
2018-09-03T12:47:34.845Z,99.90
2018-09-03T12:50:03.224Z,99.90
2018-09-03T12:52:31.474Z,99.90
2018-09-03T12:54:59.866Z,99.90
2018-09-03T12:57:28.155Z,99.90
2018-09-03T13:00:05.147Z,99.90
2018-09-03T13:02:24.710Z,99.90
2018-09-03T13:04:53.153Z,99.90
2018-09-03T13:07:21.473Z,99.90
2018-09-03T13:09:49.736Z,99.90
2018-09-03T13:12:17.999Z,99.90
2018-09-03T13:14:46.302Z,99.90
2018-09-03T13:17:14.566Z,99.90
2018-09-03T13:19:42.870Z,99.90
2018-09-03T13:22:11.228Z,99.90
2018-09-03T13:24:39.509Z,99.90
2018-09-03T13:27:07.760Z,99.90
2018-09-03T13:29:35.984Z,99.90
2018-09-03T13:32:04.320Z,99.90
2018-09-03T13:34:32.629Z,99.90
2018-09-03T13:37:00.990Z,99.90
2018-09-03T13:39:29.360Z,99.90
2018-09-03T13:41:57.638Z,99.90
2018-09-03T13:44:25.973Z,99.90
2018-09-03T13:46:55.868Z,99.90
2018-09-03T13:49:24.262Z,99.90
2018-09-03T13:51:52.592Z,99.90
2018-09-03T13:54:20.812Z,99.90
2018-09-03T13:56:49.204Z,99.90
2018-09-03T13:59:17.493Z,99.90
2018-09-03T14:01:45.734Z,99.90
2018-09-03T14:04:14.027Z,99.90
2018-09-03T14:06:42.290Z,99.90
2018-09-03T14:09:10.554Z,99.90
2018-09-03T14:11:38.972Z,99.90
2018-09-03T14:14:07.238Z,99.90
2018-09-03T14:16:35.541Z,99.90
2018-09-03T14:19:03.968Z,99.90
2018-09-03T14:21:32.270Z,99.90
2018-09-03T14:24:00.614Z,99.90
2018-09-03T14:26:28.958Z,99.90
2018-09-03T14:28:57.243Z,99.40
2018-09-03T14:31:25.550Z,97.40
2018-09-03T14:33:54.257Z,98.00
2018-09-03T14:36:22.597Z,98.20
2018-09-03T14:38:50.905Z,97.70
2018-09-03T14:41:19.244Z,97.40
2018-09-03T14:43:47.553Z,98.30
2018-09-03T14:46:15.892Z,97.80
2018-09-03T14:48:44.254Z,96.10
2018-09-03T14:51:12.526Z,96.50
2018-09-03T14:53:40.998Z,97.50
2018-09-03T14:56:09.330Z,98.50
2018-09-03T14:58:37.724Z,99.90
2018-09-03T15:01:05.934Z,97.40
2018-09-03T15:03:34.415Z,97.90
2018-09-03T15:06:02.670Z,99.50
2018-09-03T15:08:31.025Z,99.90
2018-09-03T15:10:59.357Z,99.80
2018-09-03T15:13:27.667Z,98.90
2018-09-03T15:15:55.961Z,97.80
2018-09-03T15:18:24.284Z,96.20
2018-09-03T15:20:52.560Z,95.50
2018-09-03T15:23:20.919Z,95.40
2018-09-03T15:25:49.220Z,94.90
2018-09-03T15:28:17.489Z,95.50
2018-09-03T15:30:45.791Z,95.40
2018-09-03T15:33:14.032Z,96.90
2018-09-03T15:35:42.389Z,98.30
2018-09-03T15:38:10.866Z,97.00
2018-09-03T15:40:39.186Z,97.80
2018-09-03T15:43:07.467Z,99.30
2018-09-03T15:45:35.791Z,99.80
2018-09-03T15:48:04.076Z,99.90
2018-09-03T15:50:32.458Z,99.90
2018-09-03T15:53:00.738Z,99.90
2018-09-03T15:55:29.017Z,99.90
2018-09-03T15:57:57.609Z,99.90
2018-09-03T16:00:25.934Z,99.90
2018-09-03T16:02:54.314Z,99.90
2018-09-03T16:05:22.628Z,99.90
2018-09-03T16:07:50.912Z,99.90
2018-09-03T16:10:19.265Z,99.90
2018-09-03T16:12:47.572Z,99.90
2018-09-03T16:15:15.925Z,99.90
2018-09-03T16:17:44.226Z,99.90
2018-09-03T16:20:12.706Z,99.90
2018-09-03T16:22:41.018Z,99.90
2018-09-03T16:25:09.306Z,99.90
2018-09-03T16:27:37.645Z,99.90
2018-09-03T16:30:06.043Z,99.90
2018-09-03T16:32:34.458Z,99.90
2018-09-03T16:35:02.746Z,99.90
2018-09-03T16:37:31.083Z,99.90
2018-09-03T16:39:59.424Z,99.90
2018-09-03T16:42:27.798Z,99.90
2018-09-03T16:44:56.088Z,99.90
2018-09-03T16:47:25.179Z,99.90
2018-09-03T16:49:53.466Z,99.90
2018-09-03T16:52:21.760Z,99.90
2018-09-03T16:54:50.043Z,99.90
2018-09-03T16:57:18.335Z,99.90
2018-09-03T16:59:46.647Z,99.90
2018-09-03T17:02:14.979Z,99.90
2018-09-03T17:04:43.314Z,99.90
2018-09-03T17:07:11.770Z,99.90
2018-09-03T17:09:40.062Z,99.90
2018-09-03T17:12:08.366Z,99.90
2018-09-03T17:14:36.616Z,99.90
2018-09-03T17:17:04.968Z,99.90
2018-09-03T17:19:33.263Z,99.90
2018-09-03T17:22:01.540Z,99.90
2018-09-03T17:24:29.810Z,99.90
2018-09-03T17:26:58.028Z,99.90
2018-09-03T17:29:26.469Z,99.90
2018-09-03T17:31:54.698Z,99.90
2018-09-03T17:34:22.980Z,99.90
2018-09-03T17:36:51.392Z,99.90
2018-09-03T17:39:19.781Z,99.90
2018-09-03T17:41:48.050Z,99.90
2018-09-03T17:44:16.401Z,99.90
2018-09-03T17:46:44.692Z,99.90
2018-09-03T17:49:13.076Z,99.90
2018-09-03T17:51:41.425Z,99.90
2018-09-03T17:54:09.787Z,99.90
2018-09-03T17:56:38.058Z,99.90
2018-09-03T17:59:06.422Z,99.90
2018-09-03T18:01:34.799Z,99.90
2018-09-03T18:04:03.246Z,99.90
2018-09-03T18:06:31.628Z,99.90
2018-09-03T18:08:59.947Z,99.90
2018-09-03T18:11:28.224Z,99.90
2018-09-03T18:13:56.564Z,99.90
2018-09-03T18:16:24.950Z,99.90
2018-09-03T18:18:53.391Z,99.90
2018-09-03T18:21:21.652Z,99.90
2018-09-03T18:23:50.019Z,99.90
2018-09-03T18:26:18.378Z,99.90
2018-09-03T18:28:46.625Z,99.90
2018-09-03T18:31:14.940Z,99.90
2018-09-03T18:33:43.255Z,99.90
2018-09-03T18:36:11.597Z,99.90
2018-09-03T18:38:39.927Z,99.90
2018-09-03T18:41:08.225Z,99.90
2018-09-03T18:43:36.521Z,99.90
2018-09-03T18:46:04.762Z,99.90
2018-09-03T18:48:33.039Z,99.90
2018-09-03T18:51:01.330Z,99.90
2018-09-03T18:53:29.726Z,99.90
2018-09-03T18:55:57.984Z,99.90
2018-09-03T18:58:26.403Z,99.90
2018-09-03T19:00:54.691Z,99.90
2018-09-03T19:03:22.961Z,99.90
2018-09-03T19:05:51.312Z,99.90
2018-09-03T19:08:19.569Z,99.90
2018-09-03T19:10:47.882Z,99.90
2018-09-03T19:13:16.225Z,99.90
2018-09-03T19:15:44.517Z,99.90
2018-09-03T19:18:12.776Z,99.90
2018-09-03T19:20:41.071Z,99.90
2018-09-03T19:23:09.452Z,99.90
2018-09-03T19:25:37.736Z,99.90
2018-09-03T19:28:06.190Z,99.90
2018-09-03T19:30:34.457Z,99.90
2018-09-03T19:33:02.866Z,99.90
2018-09-03T19:35:31.182Z,99.90
2018-09-03T19:37:59.462Z,99.90
2018-09-03T19:40:27.874Z,99.90
2018-09-03T19:42:56.086Z,99.90
2018-09-03T19:45:24.436Z,99.90
2018-09-03T19:47:52.705Z,99.90
2018-09-03T19:50:21.000Z,99.90
2018-09-03T19:52:49.257Z,99.90
2018-09-03T19:55:17.556Z,99.90
2018-09-03T19:57:45.901Z,99.90
2018-09-03T20:00:14.213Z,99.90
2018-09-03T20:02:42.484Z,99.90
2018-09-03T20:05:10.747Z,99.90
2018-09-03T20:07:39.002Z,99.90
2018-09-03T20:10:07.699Z,99.90
2018-09-03T20:12:35.966Z,99.90
2018-09-03T20:15:04.440Z,99.90
2018-09-03T20:17:32.685Z,99.90
2018-09-03T20:20:01.103Z,99.90
2018-09-03T20:22:29.374Z,99.90
2018-09-03T20:24:57.609Z,99.90
2018-09-03T20:27:25.983Z,99.90
2018-09-03T20:29:54.274Z,99.90
2018-09-03T20:32:22.588Z,99.90
2018-09-03T20:34:50.890Z,99.90
2018-09-03T20:37:19.184Z,99.90
2018-09-03T20:39:47.467Z,99.90
2018-09-03T20:42:15.781Z,99.90
2018-09-03T20:44:44.120Z,99.90
2018-09-03T20:47:12.374Z,99.90
2018-09-03T20:49:40.661Z,99.90
2018-09-03T20:52:08.977Z,99.90
2018-09-03T20:54:37.309Z,99.90
2018-09-03T20:57:05.630Z,99.90
2018-09-03T20:59:33.937Z,99.90
2018-09-03T21:02:02.240Z,99.90
2018-09-03T21:04:30.467Z,99.90
2018-09-03T21:06:58.869Z,99.90
2018-09-03T21:09:27.096Z,99.90
2018-09-03T21:11:55.378Z,99.90
2018-09-03T21:14:23.789Z,99.90
2018-09-03T21:16:52.010Z,99.90
2018-09-03T21:19:20.310Z,99.90
2018-09-03T21:21:48.651Z,99.90
2018-09-03T21:24:16.947Z,99.90
2018-09-03T21:26:45.193Z,99.90
2018-09-03T21:29:13.521Z,99.90
2018-09-03T21:31:41.814Z,99.90
2018-09-03T21:34:10.186Z,99.90
2018-09-03T21:36:38.464Z,99.90
2018-09-03T21:39:06.873Z,99.90
2018-09-03T21:41:35.065Z,99.90
2018-09-03T21:44:03.363Z,99.90
2018-09-03T21:46:31.739Z,99.90
2018-09-03T21:49:00.122Z,99.90
2018-09-03T21:51:28.378Z,99.90
2018-09-03T21:53:56.664Z,99.90
2018-09-03T21:56:24.913Z,99.90
2018-09-03T21:58:53.224Z,99.90
2018-09-03T22:01:21.491Z,99.90
2018-09-03T22:03:49.797Z,99.90
2018-09-03T22:06:18.099Z,99.90
2018-09-03T22:08:46.471Z,99.90
2018-09-03T22:11:14.789Z,99.90
2018-09-03T22:13:43.071Z,99.90
2018-09-03T22:16:11.383Z,99.90
2018-09-03T22:18:40.548Z,99.90
2018-09-03T22:21:08.969Z,99.90
2018-09-03T22:23:38.131Z,99.90
2018-09-03T22:26:06.601Z,99.90
2018-09-03T22:28:35.206Z,99.90
2018-09-03T22:31:03.633Z,99.90
2018-09-03T22:33:31.911Z,99.90
2018-09-03T22:36:00.250Z,99.90
2018-09-03T22:38:28.551Z,99.90
2018-09-03T22:40:56.829Z,99.90
2018-09-03T22:43:25.078Z,99.90
2018-09-03T22:45:53.425Z,99.90
2018-09-03T22:48:21.682Z,99.90
2018-09-03T22:50:49.955Z,99.90
2018-09-03T22:53:18.237Z,99.90
2018-09-03T22:55:46.564Z,99.90
2018-09-03T22:58:14.831Z,99.90
2018-09-03T23:00:43.160Z,99.90
2018-09-03T23:03:11.451Z,99.90
2018-09-03T23:05:39.688Z,99.90
2018-09-03T23:08:07.996Z,99.90
2018-09-03T23:10:36.345Z,99.90
2018-09-03T23:13:04.595Z,99.90
2018-09-03T23:15:32.912Z,99.90
2018-09-03T23:18:01.306Z,99.90
2018-09-03T23:20:29.587Z,99.90
2018-09-03T23:22:57.960Z,99.90
2018-09-03T23:25:26.245Z,99.90
2018-09-03T23:27:54.592Z,99.90
2018-09-03T23:30:22.990Z,99.90
2018-09-03T23:32:51.241Z,99.90
2018-09-03T23:35:19.527Z,99.90
2018-09-03T23:37:47.760Z,99.90
2018-09-03T23:40:16.004Z,99.90
2018-09-03T23:42:44.319Z,99.90
2018-09-03T23:45:12.629Z,99.90
2018-09-03T23:47:40.958Z,99.90
2018-09-03T23:50:09.173Z,99.90
2018-09-03T23:52:37.462Z,99.90
2018-09-03T23:55:06.301Z,99.90
2018-09-03T23:57:34.608Z,99.90
